Terminal Aerodrome Forecast
Issued by NWS Albuquerque, NM

Home | Current Version | Previous Version | Text Only | Print | Product List | Glossary On
Versions: 1 2 3 4 5 6 7 8 9 10 11 12 13 14 15
000
FTUS45 KABQ 130500
TAFABQ
TAF
KABQ 130531Z 1306/1406 10010KT P6SM SCT120 BKN200
     FM132200 12011G18KT P6SM VCSH SCT080 BKN120
     FM140400 08011KT P6SM SCT070 BKN200=

USA.gov is the U.S. government's official web portal to all federal, state and local government web resources and services.